createdAt,value
2019-05-05T00:00:48.065Z,81.53
2019-05-05T00:01:48.072Z,82.46
2019-05-05T00:02:48.041Z,81.74
2019-05-05T00:03:48.048Z,82.05
2019-05-05T00:04:48.017Z,81.43
2019-05-05T00:05:48.027Z,81.63
2019-05-05T00:06:47.989Z,81.53
2019-05-05T00:07:48.014Z,81.95
2019-05-05T00:08:47.968Z,81.63
2019-05-05T00:09:47.997Z,81.84
2019-05-05T00:10:47.978Z,82.57
2019-05-05T00:11:47.946Z,82.46
2019-05-05T00:12:47.941Z,82.68
2019-05-05T00:13:47.920Z,81.95
2019-05-05T00:14:47.940Z,82.26
2019-05-05T00:15:47.890Z,81.84
2019-05-05T00:16:47.886Z,81.84
2019-05-05T00:17:47.886Z,82.05
2019-05-05T00:18:47.860Z,82.15
2019-05-05T00:19:47.938Z,81.91
2019-05-05T00:20:47.862Z,82.26
2019-05-05T00:21:47.831Z,82.46
2019-05-05T00:22:47.817Z,82.68
2019-05-05T00:23:47.835Z,82.46
2019-05-05T00:24:47.836Z,82.57
2019-05-05T00:25:47.825Z,82.36
2019-05-05T00:26:47.809Z,82.46
2019-05-05T00:27:47.767Z,83.09
2019-05-05T00:28:47.759Z,82.57
2019-05-05T00:29:47.756Z,83.09
2019-05-05T00:30:47.733Z,83.20
2019-05-05T00:31:47.750Z,82.57
2019-05-05T00:32:47.740Z,82.89
2019-05-05T00:33:47.717Z,83.20
2019-05-05T00:34:47.693Z,82.78
2019-05-05T00:35:47.681Z,83.09
2019-05-05T00:36:47.669Z,82.78
2019-05-05T00:37:47.687Z,83.03
2019-05-05T00:38:47.648Z,82.82
2019-05-05T00:39:47.645Z,83.54
2019-05-05T00:40:47.627Z,83.44
2019-05-05T00:41:47.612Z,83.23
2019-05-05T00:42:47.607Z,83.23
2019-05-05T00:43:47.640Z,83.23
2019-05-05T00:44:47.577Z,83.44
2019-05-05T00:45:47.587Z,83.96
2019-05-05T00:46:47.559Z,83.96
2019-05-05T00:47:47.553Z,84.06
2019-05-05T00:48:47.555Z,83.65
2019-05-05T00:49:49.398Z,83.54
2019-05-05T00:50:47.516Z,84.06
2019-05-05T00:51:47.522Z,84.06
2019-05-05T00:52:47.492Z,84.48
2019-05-05T00:53:47.505Z,84.38
2019-05-05T00:54:47.495Z,84.42
2019-05-05T00:55:47.490Z,84.27
2019-05-05T00:56:47.455Z,84.63
2019-05-05T00:57:47.441Z,84.73
2019-05-05T00:58:47.431Z,85.11
2019-05-05T00:59:47.423Z,85.00
2019-05-05T01:00:47.416Z,84.80
2019-05-05T01:01:47.472Z,84.90
2019-05-05T01:02:47.410Z,84.80
2019-05-05T01:03:47.383Z,84.38
2019-05-05T01:04:47.377Z,84.80
2019-05-05T01:05:47.373Z,84.94
2019-05-05T01:06:47.381Z,84.80
2019-05-05T01:07:47.370Z,84.90
2019-05-05T01:08:47.329Z,85.00
2019-05-05T01:09:47.328Z,84.63
2019-05-05T01:10:47.302Z,84.83
2019-05-05T01:11:47.317Z,84.83
2019-05-05T01:12:47.286Z,86.40
2019-05-05T01:13:47.338Z,85.25
2019-05-05T01:14:47.266Z,85.56
2019-05-05T01:15:47.248Z,85.14
2019-05-05T01:16:47.245Z,86.40
2019-05-05T01:17:47.236Z,86.19
2019-05-05T01:18:47.222Z,86.50
2019-05-05T01:20:00.277Z,86.46
2019-05-05T01:20:48.194Z,86.67
2019-05-05T01:21:47.193Z,86.77
2019-05-05T01:22:47.185Z,86.88
2019-05-05T01:23:47.170Z,86.35
2019-05-05T01:24:47.160Z,86.25
2019-05-05T01:25:48.696Z,86.67
2019-05-05T01:26:47.134Z,86.98
2019-05-05T01:27:47.122Z,86.67
2019-05-05T01:28:47.119Z,87.50
2019-05-05T01:29:47.104Z,87.40
2019-05-05T01:30:47.100Z,87.40
2019-05-05T01:31:47.361Z,87.29
2019-05-05T01:32:47.068Z,87.81
2019-05-05T01:33:47.061Z,87.29
2019-05-05T01:34:47.046Z,87.29
2019-05-05T01:35:47.043Z,87.92
2019-05-05T01:36:47.053Z,87.92
2019-05-05T01:37:47.031Z,87.81
2019-05-05T01:38:47.008Z,88.02
2019-05-05T01:39:47.004Z,88.64
2019-05-05T01:40:46.989Z,88.64
2019-05-05T01:41:46.983Z,88.64
2019-05-05T01:42:46.997Z,88.43
2019-05-05T01:43:46.956Z,88.75
2019-05-05T01:44:46.945Z,88.12
2019-05-05T01:45:46.938Z,89.06
2019-05-05T01:46:46.935Z,88.96
2019-05-05T01:47:46.918Z,89.27
2019-05-05T01:48:46.964Z,89.41
2019-05-05T01:49:46.894Z,89.10
2019-05-05T01:50:46.883Z,89.31
2019-05-05T01:51:46.875Z,89.52
2019-05-05T01:52:46.867Z,89.62
2019-05-05T01:53:46.871Z,89.73
2019-05-05T01:54:47.363Z,90.14
2019-05-05T01:55:46.835Z,90.25
2019-05-05T01:56:46.829Z,90.77
2019-05-05T01:57:46.804Z,90.35
2019-05-05T01:58:46.803Z,90.45
2019-05-05T01:59:46.798Z,90.04
2019-05-05T02:00:46.793Z,90.66
2019-05-05T02:01:46.772Z,90.87
2019-05-05T02:02:46.755Z,90.77
2019-05-05T02:03:46.745Z,90.66
2019-05-05T02:04:46.731Z,90.66
2019-05-05T02:05:46.752Z,90.77
2019-05-05T02:06:46.715Z,90.56
2019-05-05T02:07:46.699Z,90.56
2019-05-05T02:08:46.693Z,90.45
2019-05-05T02:09:46.686Z,90.66
2019-05-05T02:10:46.683Z,90.66
2019-05-05T02:11:46.687Z,90.56
2019-05-05T02:12:46.670Z,90.56
2019-05-05T02:13:46.651Z,90.25
2019-05-05T02:14:46.638Z,90.35
2019-05-05T02:15:46.624Z,90.45
2019-05-05T02:16:46.615Z,90.66
2019-05-05T02:17:46.623Z,90.87
2019-05-05T02:18:46.589Z,90.66
2019-05-05T02:19:46.576Z,90.87
2019-05-05T02:20:46.568Z,90.25
2019-05-05T02:21:46.598Z,90.56
2019-05-05T02:22:46.555Z,90.35
2019-05-05T02:23:46.565Z,90.35
2019-05-05T02:24:46.527Z,90.87
2019-05-05T02:25:46.516Z,90.45
2019-05-05T02:26:46.500Z,90.35
2019-05-05T02:27:46.497Z,90.35
2019-05-05T02:28:46.483Z,90.35
2019-05-05T02:29:46.501Z,90.77
2019-05-05T02:30:46.683Z,90.66
2019-05-05T02:31:46.451Z,90.35
2019-05-05T02:32:46.437Z,90.66
2019-05-05T02:33:46.430Z,90.60
2019-05-05T02:34:46.429Z,90.04
2019-05-05T02:35:46.447Z,89.94
2019-05-05T02:36:46.398Z,89.87
2019-05-05T02:37:46.412Z,90.08
2019-05-05T02:38:46.611Z,90.19
2019-05-05T02:39:58.167Z,90.19
2019-05-05T02:40:47.393Z,89.98
2019-05-05T02:41:46.358Z,89.87
2019-05-05T02:42:46.337Z,89.83
2019-05-05T02:43:46.331Z,89.87
2019-05-05T02:44:46.316Z,89.76
2019-05-05T02:45:46.300Z,89.98
2019-05-05T02:46:46.326Z,89.94
2019-05-05T02:47:46.283Z,89.87
2019-05-05T02:48:46.272Z,90.35
2019-05-05T02:49:46.258Z,90.19
2019-05-05T02:50:54.946Z,90.25
2019-05-05T02:51:47.261Z,90.19
2019-05-05T02:52:46.217Z,90.66
2019-05-05T02:53:46.213Z,90.70
2019-05-05T02:54:46.207Z,90.35
2019-05-05T02:55:46.209Z,90.70
2019-05-05T02:56:46.183Z,90.60
2019-05-05T02:57:46.199Z,90.60
2019-05-05T02:58:46.168Z,90.60
2019-05-05T02:59:46.152Z,90.91
2019-05-05T03:00:46.145Z,90.60
2019-05-05T03:01:46.138Z,90.44
2019-05-05T03:02:46.123Z,90.81
2019-05-05T03:03:46.133Z,90.39
2019-05-05T03:04:46.096Z,90.75
2019-05-05T03:05:46.088Z,90.64
2019-05-05T03:06:46.082Z,90.50
2019-05-05T03:07:46.078Z,90.70
2019-05-05T03:08:46.056Z,90.75
2019-05-05T03:09:46.343Z,90.60
2019-05-05T03:10:46.038Z,90.81
2019-05-05T03:11:46.036Z,90.70
2019-05-05T03:12:46.011Z,90.19
2019-05-05T03:13:45.991Z,90.75
2019-05-05T03:14:46.025Z,90.29
2019-05-05T03:15:45.971Z,90.60
2019-05-05T03:16:45.961Z,90.50
2019-05-05T03:17:45.957Z,90.33
2019-05-05T03:18:45.941Z,90.39
2019-05-05T03:19:45.940Z,90.54
2019-05-05T03:20:45.953Z,90.91
2019-05-05T03:21:45.931Z,90.39
2019-05-05T03:22:45.898Z,90.60
2019-05-05T03:23:45.893Z,90.70
2019-05-05T03:24:45.879Z,90.75
2019-05-05T03:25:45.875Z,90.64
2019-05-05T03:26:45.886Z,90.75
2019-05-05T03:27:45.846Z,90.64
2019-05-05T03:28:45.839Z,90.54
2019-05-05T03:29:45.851Z,90.39
2019-05-05T03:30:45.827Z,90.75
2019-05-05T03:31:46.167Z,90.54
2019-05-05T03:32:45.899Z,90.64
2019-05-05T03:33:46.262Z,90.60
2019-05-05T03:34:45.776Z,90.44
2019-05-05T03:35:45.773Z,90.70
2019-05-05T03:36:45.754Z,90.75
2019-05-05T03:37:45.782Z,90.54
2019-05-05T03:38:45.734Z,90.44
2019-05-05T03:39:45.719Z,90.64
2019-05-05T03:40:45.716Z,90.54
2019-05-05T03:41:45.701Z,90.44
2019-05-05T03:42:45.721Z,91.06
2019-05-05T03:43:45.711Z,90.54
2019-05-05T03:44:45.672Z,90.33
2019-05-05T03:45:45.657Z,90.64
2019-05-05T03:46:45.657Z,90.22
2019-05-05T03:47:45.654Z,90.54
2019-05-05T03:48:45.620Z,90.33
2019-05-05T03:49:45.647Z,90.33
2019-05-05T03:50:45.605Z,90.44
2019-05-05T03:51:45.590Z,90.44
2019-05-05T03:52:45.592Z,90.95
2019-05-05T03:53:45.580Z,90.54
2019-05-05T03:54:45.557Z,90.33
2019-05-05T03:55:45.581Z,90.95
2019-05-05T03:56:45.539Z,92.10
2019-05-05T03:57:45.530Z,91.37
2019-05-05T03:58:45.524Z,91.37
2019-05-05T03:59:45.524Z,91.06
2019-05-05T04:00:45.492Z,91.27
2019-05-05T04:01:45.504Z,91.16
2019-05-05T04:02:45.478Z,91.68
2019-05-05T04:03:45.463Z,91.37
2019-05-05T04:04:45.454Z,91.27
2019-05-05T04:05:45.453Z,91.16
2019-05-05T04:06:45.431Z,91.16
2019-05-05T04:07:45.454Z,91.47
2019-05-05T04:08:45.414Z,91.78
2019-05-05T04:09:45.397Z,91.52
2019-05-05T04:10:45.394Z,91.52
2019-05-05T04:11:45.383Z,91.06
2019-05-05T04:12:45.379Z,91.06
2019-05-05T04:13:45.386Z,91.16
2019-05-05T04:14:45.344Z,91.06
2019-05-05T04:15:45.332Z,91.27
2019-05-05T04:16:45.324Z,91.20
2019-05-05T04:17:45.327Z,91.20
2019-05-05T04:18:45.301Z,91.41
2019-05-05T04:19:45.311Z,91.16
2019-05-05T04:20:45.289Z,91.10
2019-05-05T04:21:45.284Z,91.31
2019-05-05T04:22:45.266Z,91.41
2019-05-05T04:23:45.298Z,91.31
2019-05-05T04:24:45.275Z,91.41
2019-05-05T04:25:45.251Z,91.52
2019-05-05T04:26:45.233Z,91.31
2019-05-05T04:27:45.253Z,91.62
2019-05-05T04:28:45.195Z,91.93
2019-05-05T04:29:45.200Z,91.20
2019-05-05T04:30:45.204Z,91.00
2019-05-05T04:31:45.211Z,91.00
2019-05-05T04:32:45.157Z,90.79
2019-05-05T04:33:45.163Z,90.89
2019-05-05T04:34:45.136Z,91.00
2019-05-05T04:35:45.125Z,90.89
2019-05-05T04:36:45.143Z,90.68
2019-05-05T04:37:45.112Z,90.37
2019-05-05T04:38:45.091Z,91.00
2019-05-05T04:39:45.085Z,90.79
2019-05-05T04:40:45.067Z,90.68
2019-05-05T04:41:45.063Z,90.89
2019-05-05T04:42:45.075Z,90.79
2019-05-05T04:43:45.052Z,90.68
2019-05-05T04:44:45.141Z,90.37
2019-05-05T04:45:45.034Z,90.37
2019-05-05T04:46:45.003Z,90.79
2019-05-05T04:47:45.002Z,90.68
2019-05-05T04:48:45.009Z,90.68
2019-05-05T04:49:44.991Z,90.89
2019-05-05T04:50:44.974Z,90.68
2019-05-05T04:51:50.080Z,91.27
2019-05-05T04:52:45.963Z,90.68
2019-05-05T04:53:44.944Z,90.64
2019-05-05T04:54:44.958Z,90.79
2019-05-05T04:55:44.958Z,90.22
2019-05-05T04:56:44.928Z,90.22
2019-05-05T04:57:44.964Z,90.75
2019-05-05T04:58:44.886Z,90.44
2019-05-05T04:59:44.889Z,90.44
2019-05-05T05:00:44.880Z,90.44
2019-05-05T05:01:44.860Z,90.54
2019-05-05T05:02:44.847Z,90.12
2019-05-05T05:03:44.829Z,90.12
2019-05-05T05:04:44.819Z,89.91
2019-05-05T05:05:44.805Z,89.87
2019-05-05T05:06:44.825Z,89.39
2019-05-05T05:07:44.800Z,89.35
2019-05-05T05:08:44.776Z,89.35
2019-05-05T05:09:44.769Z,89.25
2019-05-05T05:10:44.750Z,89.14
2019-05-05T05:11:44.809Z,89.04
2019-05-05T05:12:44.768Z,89.04
2019-05-05T05:13:44.848Z,88.52
2019-05-05T05:14:44.710Z,88.58
2019-05-05T05:15:44.811Z,88.58
2019-05-05T05:16:44.794Z,89.04
2019-05-05T05:17:44.705Z,88.89
2019-05-05T05:18:44.798Z,89.04
2019-05-05T05:19:44.668Z,88.62
2019-05-05T05:20:44.654Z,88.93
2019-05-05T05:21:57.648Z,88.42
2019-05-05T05:22:45.674Z,87.96
2019-05-05T05:23:44.672Z,88.06
2019-05-05T05:24:44.785Z,87.96
2019-05-05T05:25:44.610Z,87.65
2019-05-05T05:26:44.583Z,88.02
2019-05-05T05:27:44.572Z,87.23
2019-05-05T05:28:44.899Z,87.23
2019-05-05T05:29:44.559Z,87.23
2019-05-05T05:30:44.545Z,87.23
2019-05-05T05:31:44.558Z,87.12
2019-05-05T05:32:44.717Z,87.85
2019-05-05T05:33:44.532Z,88.17
2019-05-05T05:34:44.492Z,87.81
2019-05-05T05:35:44.492Z,87.71
2019-05-05T05:36:44.521Z,87.19
2019-05-05T05:37:44.879Z,87.19
2019-05-05T05:38:44.452Z,87.19
2019-05-05T05:39:44.496Z,86.98
2019-05-05T05:40:44.557Z,86.67
2019-05-05T05:41:44.444Z,86.77
2019-05-05T05:42:44.414Z,86.46
2019-05-05T05:43:44.425Z,86.35
2019-05-05T05:44:44.524Z,86.25
2019-05-05T05:45:44.403Z,86.21
2019-05-05T05:46:44.372Z,86.42
2019-05-05T05:47:44.364Z,86.25
2019-05-05T05:48:44.355Z,86.21
2019-05-05T05:49:44.335Z,86.32
2019-05-05T05:50:44.420Z,86.00
2019-05-05T05:51:44.752Z,86.11
2019-05-05T05:52:44.308Z,86.11
2019-05-05T05:53:44.315Z,85.96
2019-05-05T05:54:44.361Z,86.21
2019-05-05T05:55:44.870Z,86.38
2019-05-05T05:56:44.747Z,86.07
2019-05-05T05:57:44.286Z,86.17
2019-05-05T05:58:44.274Z,86.38
2019-05-05T05:59:44.507Z,85.96
2019-05-05T06:00:44.413Z,85.20
2019-05-05T06:01:44.220Z,85.24
2019-05-05T06:02:44.235Z,84.78
2019-05-05T06:03:44.441Z,84.27
2019-05-05T06:04:44.605Z,83.53
2019-05-05T06:05:44.201Z,83.43
2019-05-05T06:06:44.198Z,83.84
2019-05-05T06:07:44.388Z,83.84
2019-05-05T06:08:44.208Z,83.84
2019-05-05T06:09:44.136Z,83.12
2019-05-05T06:10:44.437Z,82.50
2019-05-05T06:11:44.113Z,82.60
2019-05-05T06:12:45.027Z,82.04
2019-05-05T06:13:45.990Z,81.01
2019-05-05T06:14:44.753Z,80.28
2019-05-05T06:15:44.503Z,79.97
2019-05-05T06:16:44.654Z,79.51
2019-05-05T06:17:44.062Z,79.41
2019-05-05T06:18:44.037Z,79.20
2019-05-05T06:19:44.572Z,78.55
2019-05-05T06:20:44.631Z,77.72
2019-05-05T06:21:44.106Z,77.51
2019-05-05T06:22:44.657Z,78.58
2019-05-05T06:23:43.972Z,76.89
2019-05-05T06:24:44.104Z,76.78
2019-05-05T06:25:44.751Z,77.30
2019-05-05T06:26:44.665Z,76.68
2019-05-05T06:27:44.595Z,76.75
2019-05-05T06:28:44.750Z,77.51
2019-05-05T06:29:44.046Z,76.47
2019-05-05T06:30:44.420Z,76.68
2019-05-05T06:31:44.784Z,76.57
2019-05-05T06:32:45.809Z,76.64
2019-05-05T06:33:43.963Z,76.12
2019-05-05T06:34:44.407Z,76.06
2019-05-05T06:35:44.450Z,76.95
2019-05-05T06:36:44.489Z,76.85
2019-05-05T06:37:46.608Z,76.89
2019-05-05T06:38:43.932Z,76.85
2019-05-05T06:39:44.090Z,76.33
2019-05-05T06:40:44.456Z,76.95
2019-05-05T06:41:43.786Z,76.95
2019-05-05T06:42:43.798Z,77.33
2019-05-05T06:43:44.209Z,76.75
2019-05-05T06:44:44.260Z,76.61
2019-05-05T06:45:44.357Z,77.23
2019-05-05T06:46:44.592Z,76.92
2019-05-05T06:47:44.534Z,75.46
2019-05-05T06:48:43.952Z,76.19
2019-05-05T06:49:43.942Z,76.19
2019-05-05T06:50:43.844Z,75.98
2019-05-05T06:51:44.094Z,76.36
2019-05-05T06:52:45.108Z,75.88
2019-05-05T06:53:43.722Z,75.53
2019-05-05T06:54:43.921Z,74.71
2019-05-05T06:55:44.412Z,75.12
2019-05-05T06:56:44.492Z,75.02
2019-05-05T06:57:44.437Z,74.71
2019-05-05T06:58:44.762Z,75.19
2019-05-05T06:59:43.997Z,75.29
2019-05-05T07:00:44.211Z,74.57
2019-05-05T07:01:44.277Z,74.77
2019-05-05T07:02:44.429Z,75.05
2019-05-05T07:03:43.960Z,74.95
2019-05-05T07:04:44.499Z,74.57
2019-05-05T07:05:43.959Z,74.67
2019-05-05T07:06:53.507Z,74.53
2019-05-05T07:07:44.488Z,74.57
2019-05-05T07:08:43.922Z,73.53
2019-05-05T07:09:44.288Z,73.50
2019-05-05T07:10:44.414Z,73.71
2019-05-05T07:11:43.794Z,73.71
2019-05-05T07:12:44.083Z,73.71
2019-05-05T07:13:44.287Z,73.29
2019-05-05T07:14:44.530Z,72.67
2019-05-05T07:15:43.891Z,72.77
2019-05-05T07:16:43.888Z,70.77
2019-05-05T07:17:44.225Z,70.98
2019-05-05T07:18:44.560Z,71.60
2019-05-05T07:19:45.074Z,71.91
2019-05-05T07:20:44.074Z,72.43
2019-05-05T07:21:43.698Z,73.05
2019-05-05T07:22:57.968Z,73.22
2019-05-05T07:23:44.714Z,73.12
2019-05-05T07:24:43.682Z,73.22
2019-05-05T07:25:45.878Z,73.08
2019-05-05T07:26:44.643Z,73.64
2019-05-05T07:27:44.275Z,73.12
2019-05-05T07:28:44.780Z,73.19
2019-05-05T07:29:43.804Z,72.16
2019-05-05T07:30:44.226Z,71.12
2019-05-05T07:31:43.762Z,69.98
2019-05-05T07:32:44.313Z,70.67
2019-05-05T07:33:43.794Z,70.67
2019-05-05T07:34:43.895Z,69.85
2019-05-05T07:35:56.035Z,69.74
2019-05-05T07:36:44.499Z,69.33
2019-05-05T07:37:43.743Z,69.20
2019-05-05T07:38:44.214Z,69.43
2019-05-05T07:39:44.646Z,69.54
2019-05-05T07:40:43.910Z,70.16
2019-05-05T07:41:44.694Z,70.98
2019-05-05T07:42:44.106Z,70.37
2019-05-05T07:43:43.770Z,70.67
2019-05-05T07:44:44.074Z,71.30
2019-05-05T07:45:44.598Z,69.85
2019-05-05T07:46:43.923Z,69.82
2019-05-05T07:47:43.698Z,70.75
2019-05-05T07:48:44.236Z,69.92
2019-05-05T07:49:44.126Z,69.92
2019-05-05T07:50:45.026Z,70.54
2019-05-05T07:51:44.375Z,70.75
2019-05-05T07:52:43.867Z,68.78
2019-05-05T07:53:44.201Z,68.65
2019-05-05T07:54:43.607Z,67.10
2019-05-05T07:55:43.676Z,66.38
2019-05-05T07:56:44.372Z,66.45
2019-05-05T07:57:43.505Z,67.17
2019-05-05T07:58:43.896Z,66.76
2019-05-05T07:59:45.008Z,63.53
2019-05-05T08:00:43.664Z,64.25
2019-05-05T08:01:45.856Z,58.89
2019-05-05T08:02:43.875Z,61.47
2019-05-05T08:03:44.555Z,62.50
2019-05-05T08:04:43.764Z,63.81
2019-05-05T08:05:44.228Z,63.92
2019-05-05T08:06:44.527Z,65.77
2019-05-05T08:07:44.648Z,65.67
2019-05-05T08:08:44.353Z,65.88
2019-05-05T08:09:44.509Z,66.25
2019-05-05T08:10:43.743Z,66.64
2019-05-05T08:11:43.548Z,66.56
2019-05-05T08:12:43.636Z,66.56
2019-05-05T08:13:44.306Z,66.56
2019-05-05T08:14:44.433Z,66.97
2019-05-05T08:15:55.985Z,67.15
2019-05-05T08:16:44.281Z,67.08
2019-05-05T08:17:44.650Z,67.05
2019-05-05T08:18:43.820Z,67.15
2019-05-05T08:19:43.885Z,67.22
2019-05-05T08:20:44.361Z,66.71
2019-05-05T08:21:43.749Z,65.03
2019-05-05T08:22:44.277Z,63.90
2019-05-05T08:23:44.657Z,64.21
2019-05-05T08:24:43.951Z,64.90
2019-05-05T08:25:45.209Z,65.00
2019-05-05T08:26:44.094Z,63.64
2019-05-05T08:27:44.661Z,63.64
2019-05-05T08:28:43.457Z,64.01
2019-05-05T08:29:43.817Z,62.48
2019-05-05T08:30:44.122Z,62.92
2019-05-05T08:31:44.265Z,63.02
2019-05-05T08:32:43.595Z,60.86
2019-05-05T08:33:44.180Z,61.68
2019-05-05T08:34:55.119Z,62.19
2019-05-05T08:35:44.856Z,62.81
2019-05-05T08:36:44.497Z,63.32
2019-05-05T08:37:43.622Z,62.58
2019-05-05T08:38:44.102Z,62.48
2019-05-05T08:39:44.618Z,63.09
2019-05-05T08:40:43.847Z,62.68
2019-05-05T08:41:45.292Z,62.75
2019-05-05T08:42:44.446Z,62.65
2019-05-05T08:43:44.039Z,64.09
2019-05-05T08:44:44.639Z,64.70
2019-05-05T08:45:44.366Z,63.37
2019-05-05T08:46:44.491Z,63.68
2019-05-05T08:47:43.579Z,63.81
2019-05-05T08:48:44.578Z,63.40
2019-05-05T08:49:44.264Z,63.74
2019-05-05T08:50:43.921Z,64.63
2019-05-05T08:51:44.250Z,65.35
2019-05-05T08:52:44.386Z,65.59
2019-05-05T08:53:47.367Z,66.31
2019-05-05T08:54:44.674Z,66.93
2019-05-05T08:55:44.283Z,67.23
2019-05-05T08:56:44.572Z,67.54
2019-05-05T08:57:44.519Z,67.75
2019-05-05T08:58:43.810Z,68.26
2019-05-05T08:59:43.936Z,68.37
2019-05-05T09:00:44.278Z,67.71
2019-05-05T09:01:44.703Z,66.69
2019-05-05T09:02:43.737Z,64.94
2019-05-05T09:03:44.304Z,64.84
2019-05-05T09:04:44.509Z,63.29
2019-05-05T09:05:43.703Z,63.81
2019-05-05T09:06:43.722Z,64.63
2019-05-05T09:07:44.137Z,65.05
2019-05-05T09:08:44.200Z,65.66
2019-05-05T09:09:44.211Z,66.38
2019-05-05T09:10:42.205Z,66.17
2019-05-05T09:11:43.794Z,64.73
2019-05-05T09:12:43.676Z,65.63
2019-05-05T09:13:44.460Z,64.84
2019-05-05T09:14:42.152Z,65.12
2019-05-05T09:15:44.113Z,65.12
2019-05-05T09:16:42.132Z,64.81
2019-05-05T09:17:43.977Z,64.40
2019-05-05T09:18:44.176Z,63.89
2019-05-05T09:19:42.102Z,63.27
2019-05-05T09:20:44.370Z,63.68
2019-05-05T09:21:42.104Z,62.34
2019-05-05T09:22:42.074Z,61.21
2019-05-05T09:23:56.571Z,60.39
2019-05-05T09:24:44.523Z,59.16
2019-05-05T09:25:42.039Z,60.49
2019-05-05T09:26:43.735Z,60.60
2019-05-05T09:27:44.153Z,59.88
2019-05-05T09:28:42.008Z,59.54
2019-05-05T09:29:43.990Z,59.95
2019-05-05T09:30:44.253Z,61.00
2019-05-05T09:31:41.997Z,59.75
2019-05-05T09:32:43.893Z,59.34
2019-05-05T09:33:44.105Z,62.93
2019-05-05T09:34:43.633Z,62.83
2019-05-05T09:35:43.717Z,62.73
2019-05-05T09:36:43.847Z,62.39
2019-05-05T09:37:44.175Z,61.67
2019-05-05T09:38:41.890Z,61.67
2019-05-05T09:39:43.722Z,60.85
2019-05-05T09:40:43.790Z,62.70
2019-05-05T09:41:41.857Z,62.66
2019-05-05T09:42:41.858Z,62.46
2019-05-05T09:43:41.840Z,62.46
2019-05-05T09:44:43.775Z,63.18
2019-05-05T09:45:43.954Z,62.84
2019-05-05T09:46:41.802Z,62.63
2019-05-05T09:47:41.800Z,62.23
2019-05-05T09:48:43.907Z,62.23
2019-05-05T09:49:41.781Z,61.30
2019-05-05T09:50:43.658Z,61.00
2019-05-05T09:51:43.833Z,60.38
2019-05-05T09:52:41.738Z,59.38
2019-05-05T09:53:41.730Z,59.15
2019-05-05T09:54:43.682Z,60.41
2019-05-05T09:55:41.721Z,60.10
2019-05-05T09:56:41.734Z,61.20
2019-05-05T09:57:43.646Z,60.35
2019-05-05T09:58:43.941Z,59.64
2019-05-05T09:59:43.905Z,59.94
2019-05-05T10:00:41.647Z,60.25
2019-05-05T10:01:41.644Z,61.07
2019-05-05T10:02:43.953Z,61.48
2019-05-05T10:03:41.673Z,61.38
2019-05-05T10:04:41.634Z,61.51
2019-05-05T10:05:41.602Z,61.61
2019-05-05T10:06:41.596Z,61.82
2019-05-05T10:07:41.571Z,61.30
2019-05-05T10:08:41.569Z,60.49
2019-05-05T10:09:43.616Z,61.23
2019-05-05T10:10:41.542Z,61.54
2019-05-05T10:11:41.537Z,60.31
2019-05-05T10:12:41.527Z,60.72
2019-05-05T10:13:41.511Z,60.85
2019-05-05T10:14:41.505Z,61.16
2019-05-05T10:15:41.510Z,60.75
2019-05-05T10:16:41.481Z,61.29
2019-05-05T10:17:41.464Z,61.39
2019-05-05T10:18:41.470Z,61.70
2019-05-05T10:19:41.446Z,61.62
2019-05-05T10:20:41.441Z,62.55
2019-05-05T10:21:41.484Z,62.85
2019-05-05T10:22:41.405Z,63.29
2019-05-05T10:23:43.511Z,63.81
2019-05-05T10:24:41.385Z,63.78
2019-05-05T10:25:41.378Z,65.14
2019-05-05T10:26:41.368Z,64.97
2019-05-05T10:27:44.889Z,65.59
2019-05-05T10:28:44.370Z,65.59
2019-05-05T10:29:41.344Z,66.51
2019-05-05T10:30:41.360Z,67.06
2019-05-05T10:31:41.305Z,68.29
2019-05-05T10:32:41.305Z,70.66
2019-05-05T10:33:41.306Z,72.72
2019-05-05T10:34:41.278Z,74.08
2019-05-05T10:35:41.284Z,75.70
2019-05-05T10:36:41.253Z,76.97
2019-05-05T10:37:41.240Z,79.47
2019-05-05T10:38:41.256Z,79.68
2019-05-05T10:39:41.261Z,81.43
2019-05-05T10:40:41.218Z,83.12
2019-05-05T10:41:41.203Z,82.29
2019-05-05T10:42:41.186Z,82.29
2019-05-05T10:43:41.181Z,79.61
2019-05-05T10:44:41.273Z,75.67
2019-05-05T10:45:41.194Z,76.39
2019-05-05T10:46:41.156Z,76.90
2019-05-05T10:47:41.147Z,76.49
2019-05-05T10:48:41.141Z,75.46
2019-05-05T10:49:41.112Z,74.84
2019-05-05T10:50:41.135Z,74.33
2019-05-05T10:51:41.108Z,77.51
2019-05-05T10:52:41.099Z,77.31
2019-05-05T10:53:41.103Z,75.12
2019-05-05T10:54:44.630Z,77.07
2019-05-05T10:55:41.229Z,76.45
2019-05-05T10:56:41.067Z,76.76
2019-05-05T10:57:41.049Z,78.99
2019-05-05T10:58:41.489Z,75.80
2019-05-05T10:59:41.006Z,74.77
2019-05-05T11:00:41.017Z,75.01
2019-05-05T11:01:41.011Z,74.98
2019-05-05T11:02:41.007Z,73.50
2019-05-05T11:03:40.969Z,72.58
2019-05-05T11:04:40.954Z,73.19
2019-05-05T11:05:41.013Z,72.24
2019-05-05T11:06:41.045Z,68.43
2019-05-05T11:07:40.946Z,70.28
2019-05-05T11:08:40.936Z,69.12
2019-05-05T11:09:40.913Z,69.91
2019-05-05T11:10:40.931Z,68.48
2019-05-05T11:11:40.879Z,66.11
2019-05-05T11:12:40.875Z,67.03
2019-05-05T11:13:42.788Z,68.34
2019-05-05T11:14:40.899Z,67.00
2019-05-05T11:15:40.838Z,66.49
2019-05-05T11:16:40.845Z,64.61
2019-05-05T11:17:40.824Z,65.03
2019-05-05T11:18:40.808Z,66.67
2019-05-05T11:19:40.789Z,65.12
2019-05-05T11:20:40.812Z,66.77
2019-05-05T11:21:40.769Z,65.12
2019-05-05T11:22:40.757Z,66.84
2019-05-05T11:23:40.745Z,66.74
2019-05-05T11:24:54.208Z,66.30
2019-05-05T11:25:44.034Z,68.14
2019-05-05T11:26:40.719Z,63.64
2019-05-05T11:27:40.758Z,65.27
2019-05-05T11:28:40.744Z,66.06
2019-05-05T11:29:40.695Z,64.83
2019-05-05T11:30:40.680Z,60.60
2019-05-05T11:31:40.693Z,60.91
2019-05-05T11:32:40.716Z,60.37
2019-05-05T11:33:40.648Z,58.50
2019-05-05T11:34:40.633Z,58.37
2019-05-05T11:35:40.619Z,57.97
2019-05-05T11:36:40.612Z,57.35
2019-05-05T11:37:40.641Z,56.53
2019-05-05T11:38:41.673Z,56.97
2019-05-05T11:39:40.579Z,57.28
2019-05-05T11:40:40.566Z,56.74
2019-05-05T11:41:40.554Z,55.13
2019-05-05T11:42:40.597Z,54.23
2019-05-05T11:43:40.550Z,54.13
2019-05-05T11:44:40.524Z,55.05
2019-05-05T11:45:40.508Z,54.64
2019-05-05T11:46:40.563Z,54.85
2019-05-05T11:47:40.507Z,56.38
2019-05-05T11:48:40.491Z,53.92
2019-05-05T11:49:40.463Z,54.23
2019-05-05T11:50:40.472Z,55.36
2019-05-05T11:51:40.514Z,53.75
2019-05-05T11:52:40.718Z,53.62
2019-05-05T11:53:40.684Z,54.31
2019-05-05T11:54:40.708Z,53.28
2019-05-05T11:55:40.475Z,52.87
2019-05-05T11:56:40.424Z,52.37
2019-05-05T11:57:40.387Z,52.16
2019-05-05T11:58:40.379Z,50.12
2019-05-05T11:59:40.536Z,50.12
2019-05-05T12:00:40.409Z,50.32
2019-05-05T12:01:40.404Z,50.63
2019-05-05T12:02:40.388Z,49.71
2019-05-05T12:03:40.417Z,48.89
2019-05-05T12:04:40.408Z,49.48
2019-05-05T12:05:40.415Z,50.71
2019-05-05T12:06:40.725Z,49.76
2019-05-05T12:07:40.536Z,49.63
2019-05-05T12:08:42.939Z,49.74
2019-05-05T12:09:41.308Z,49.22
2019-05-05T12:10:40.245Z,49.74
2019-05-05T12:11:40.453Z,49.95
2019-05-05T12:12:40.224Z,49.33
2019-05-05T12:13:40.205Z,49.96
2019-05-05T12:14:40.237Z,49.55
2019-05-05T12:15:40.214Z,49.76
2019-05-05T12:16:40.189Z,49.96
2019-05-05T12:17:40.226Z,50.17
2019-05-05T12:18:40.194Z,50.27
2019-05-05T12:19:40.152Z,50.48
2019-05-05T12:20:40.132Z,49.63
2019-05-05T12:21:40.121Z,48.82
2019-05-05T12:22:40.111Z,48.82
2019-05-05T12:23:40.167Z,48.51
2019-05-05T12:24:40.186Z,48.41
2019-05-05T12:25:40.101Z,48.51
2019-05-05T12:26:40.072Z,47.49
2019-05-05T12:27:40.066Z,47.69
2019-05-05T12:28:40.053Z,47.29
2019-05-05T12:29:40.068Z,47.08
2019-05-05T12:30:40.075Z,48.31
2019-05-05T12:31:40.022Z,46.98
2019-05-05T12:32:40.019Z,47.41
2019-05-05T12:33:40.010Z,49.15
2019-05-05T12:34:39.988Z,48.94
2019-05-05T12:35:40.011Z,49.46
2019-05-05T12:36:39.979Z,48.56
2019-05-05T12:37:39.957Z,49.19
2019-05-05T12:38:39.946Z,49.30
2019-05-05T12:39:39.934Z,49.19
2019-05-05T12:40:39.956Z,49.40
2019-05-05T12:41:39.908Z,48.89
2019-05-05T12:42:39.898Z,49.91
2019-05-05T12:43:39.894Z,49.60
2019-05-05T12:44:39.884Z,49.91
2019-05-05T12:45:40.168Z,50.30
2019-05-05T12:46:40.234Z,50.52
2019-05-05T12:47:39.851Z,50.71
2019-05-05T12:48:40.849Z,50.42
2019-05-05T12:49:39.945Z,51.93
2019-05-05T12:50:39.838Z,50.50
2019-05-05T12:51:39.941Z,51.93
2019-05-05T12:52:39.851Z,51.95